Time;durP1;ratioP1;P1;durP2;ratioP2;P2;SDS_P1;SDS_P2;PMS_P1;PMS_P2;Temp;Humidity;BMP_temperature;BMP_pressure;BME280_temperature;BME280_humidity;BME280_pressure;Samples;Min_cycle;Max_cycle;Signal;HPM_P1;HPM_P2
2023/07/02 00:00:05;;;;;;;6.43;2.47;;;19.40;82.90;;;22.23;54.02;100316.22;4955110;28;20221;-60
2023/07/02 00:02:32;;;;;;;3.67;2.97;;;19.40;83.30;;;22.22;53.89;100309.28;4955271;29;20202;-60
2023/07/02 00:05:01;;;;;;;4.00;2.40;;;19.40;82.60;;;22.19;53.90;100315.16;4955398;28;20288;-61
2023/07/02 00:07:28;;;;;;;4.73;2.83;;;19.40;82.50;;;22.18;54.23;100311.66;4973519;28;20196;-60
2023/07/02 00:09:55;;;;;;;4.47;2.57;;;19.40;82.50;;;22.16;53.97;100305.75;4974226;28;20852;-61
2023/07/02 00:12:22;;;;;;;8.80;3.17;;;19.40;82.50;;;22.16;54.07;100307.63;4974475;28;20196;-61
2023/07/02 00:14:52;;;;;;;4.93;2.97;;;19.40;82.60;;;22.14;53.94;100299.84;4974559;28;20191;-58
2023/07/02 00:17:19;;;;;;;4.77;2.80;;;19.50;82.60;;;22.15;53.62;100303.34;4974904;28;20192;-61
2023/07/02 00:19:46;;;;;;;4.50;2.53;;;19.40;82.40;;;22.15;53.94;100304.16;4974337;28;20283;-60
2023/07/02 00:22:15;;;;;;;3.23;2.83;;;19.40;82.40;;;22.15;53.76;100306.84;4974771;28;20247;-60
2023/07/02 00:24:42;;;;;;;6.03;2.77;;;19.40;82.30;;;22.16;53.82;100304.94;4974557;28;20220;-59
2023/07/02 00:27:09;;;;;;;5.17;2.37;;;19.40;82.30;;;22.14;53.55;100305.22;4974899;28;20546;-60
2023/07/02 00:29:36;;;;;;;4.13;2.67;;;19.40;82.10;;;22.15;53.86;100309.50;4974534;28;20240;-61
2023/07/02 00:32:05;;;;;;;3.17;2.47;;;19.40;82.10;;;22.16;53.78;100304.94;4974424;28;20204;-59
2023/07/02 00:34:32;;;;;;;3.63;2.73;;;19.40;82.10;;;22.14;54.02;100304.41;4974347;28;20280;-60
2023/07/02 00:36:59;;;;;;;3.00;2.43;;;19.40;82.10;;;22.14;53.62;100307.88;4974549;28;20657;-61
2023/07/02 00:39:27;;;;;;;4.27;2.53;;;19.50;82.20;;;22.18;53.78;100308.97;4973937;28;20302;-61
2023/07/02 00:42:00;;;;;;;4.10;2.77;;;19.40;82.00;;;22.15;53.57;100297.97;4975909;28;20192;-60
2023/07/02 00:44:27;;;;;;;7.27;2.77;;;19.50;82.00;;;22.17;53.56;100311.94;4978427;28;20255;-60
2023/07/02 00:46:54;;;;;;;6.20;2.67;;;19.50;82.00;;;22.20;53.55;100300.69;4978053;28;20271;-60
2023/07/02 00:49:22;;;;;;;3.67;2.83;;;19.50;82.00;;;22.24;53.40;100307.13;4977710;28;20298;-60
2023/07/02 00:51:49;;;;;;;3.93;2.60;;;19.50;82.00;;;22.26;53.34;100304.97;4971194;28;20215;-57
2023/07/02 00:54:16;;;;;;;4.47;2.67;;;19.50;82.00;;;22.29;53.59;100298.28;4978673;28;20279;-60
2023/07/02 00:56:45;;;;;;;3.57;2.53;;;19.50;82.60;;;22.28;53.10;100297.47;4978548;28;20199;-59
2023/07/02 00:59:12;;;;;;;4.03;2.27;;;19.40;81.60;;;22.21;53.13;100292.38;4979010;28;20220;-60
2023/07/02 01:01:39;;;;;;;4.97;2.90;;;19.50;81.40;;;22.22;53.45;100295.88;4978761;28;20272;-60
2023/07/02 01:04:12;;;;;;;4.73;3.00;;;19.50;81.40;;;22.21;53.21;100292.38;4978519;28;20225;-59
2023/07/02 01:06:40;;;;;;;5.30;3.20;;;19.50;81.30;;;22.18;53.66;100300.13;4978082;28;20231;-61
2023/07/02 01:09:08;;;;;;;5.57;3.27;;;19.50;81.30;;;22.17;53.39;100307.38;4977678;28;20212;-57
2023/07/02 01:11:41;;;;;;;2.50;2.30;;;19.50;81.30;;;22.17;53.55;100293.97;4977953;28;20708;-59
2023/07/02 01:14:14;;;;;;;3.03;2.73;;;19.50;81.30;;;22.17;53.25;100291.28;4977977;28;20561;-59
2023/07/02 01:16:43;;;;;;;3.77;2.63;;;19.50;81.30;;;22.20;53.38;100295.31;4978111;28;20711;-60
2023/07/02 01:19:18;;;;;;;4.63;3.30;;;19.40;81.40;;;22.20;53.09;100290.75;4977484;28;20216;-59
2023/07/02 01:21:48;;;;;;;6.73;2.93;;;19.50;81.40;;;22.19;53.35;100293.69;4977721;28;20271;-59
2023/07/02 01:24:16;;;;;;;4.20;2.60;;;19.50;81.40;;;22.18;53.03;100297.44;4977631;28;20303;-60
2023/07/02 01:26:45;;;;;;;3.97;3.03;;;19.50;81.30;;;22.19;53.09;100294.50;4977710;28;20239;-59
2023/07/02 01:29:16;;;;;;;6.33;3.27;;;19.50;81.40;;;22.20;53.46;100292.63;4977414;28;20546;-59
2023/07/02 01:31:44;;;;;;;5.80;2.93;;;19.40;81.40;;;22.22;53.25;100298.53;4977556;28;20201;-61
2023/07/02 01:34:12;;;;;;;4.67;2.70;;;19.40;81.20;;;22.20;52.85;100300.69;4977477;28;20192;-59
2023/07/02 01:36:40;;;;;;;5.23;3.20;;;19.40;81.20;;;22.20;52.97;100300.69;4977418;28;20189;-59
2023/07/02 01:39:08;;;;;;;4.10;2.83;;;19.50;81.20;;;22.21;53.05;100296.91;4977160;28;20238;-60
2023/07/02 01:41:42;;;;;;;4.27;2.60;;;19.50;81.10;;;22.21;52.63;100299.59;4977427;28;20287;-59
2023/07/02 01:44:09;;;;;;;6.17;3.30;;;19.40;81.00;;;22.20;52.74;100306.03;4977214;28;20216;-59
2023/07/02 01:46:37;;;;;;;4.17;2.97;;;19.40;80.70;;;22.22;53.05;100303.91;4977132;28;20863;-58
2023/07/02 01:49:04;;;;;;;6.23;2.80;;;19.40;80.70;;;22.21;52.57;100291.56;4976685;28;20307;-59
2023/07/02 01:51:31;;;;;;;5.50;3.00;;;19.40;80.80;;;22.22;52.75;100301.22;4970033;28;20219;-62
2023/07/02 01:53:58;;;;;;;6.13;3.50;;;19.50;80.80;;;22.21;52.89;100302.28;4976997;28;20193;-60
2023/07/02 01:56:26;;;;;;;5.87;3.10;;;19.40;80.50;;;22.21;52.47;100296.91;4976955;28;20243;-58
2023/07/02 01:58:53;;;;;;;7.30;3.93;;;19.50;80.40;;;22.18;52.46;100303.59;4976505;28;20235;-60
2023/07/02 02:01:20;;;;;;;5.90;3.27;;;19.40;80.20;;;22.17;52.14;100309.25;4977147;28;20283;-60
2023/07/02 02:03:47;;;;;;;7.47;3.43;;;19.40;80.00;;;22.16;52.05;100312.97;4977060;28;20234;-59
2023/07/02 02:06:14;;;;;;;4.07;3.37;;;19.40;79.90;;;22.16;52.64;100312.97;4977020;28;20275;-59
2023/07/02 02:08:41;;;;;;;8.80;3.60;;;19.40;79.90;;;22.13;52.51;100306.25;4976634;28;20216;-61
2023/07/02 02:11:08;;;;;;;4.77;3.77;;;19.40;79.80;;;22.11;52.20;100312.94;4976531;28;20275;-60
2023/07/02 02:13:36;;;;;;;5.60;3.27;;;19.40;79.80;;;22.10;51.91;100314.03;4976903;28;20197;-60
2023/07/02 02:16:03;;;;;;;8.17;4.07;;;19.40;79.60;;;22.05;51.89;100314.00;4976814;28;20201;-60
2023/07/02 02:18:30;;;;;;;5.40;3.20;;;19.30;78.90;;;22.02;51.83;100314.50;4976083;28;20271;-59
2023/07/02 02:21:11;;;;;;;5.10;3.77;;;19.30;78.80;;;22.01;51.91;100318.28;4935825;29;20704;-61
2023/07/02 02:23:38;;;;;;;6.50;4.23;;;19.30;78.70;;;21.98;51.48;100314.25;4936080;29;20284;-58
2023/07/02 02:26:05;;;;;;;7.57;4.37;;;19.30;78.50;;;21.93;51.42;100306.16;4935698;29;20295;-61
2023/07/02 02:28:32;;;;;;;7.13;4.00;;;19.20;78.20;;;21.89;51.38;100315.00;4935440;29;20218;-60
2023/07/02 02:31:01;;;;;;;5.13;3.57;;;19.20;78.20;;;21.86;51.47;100315.50;4936003;29;20241;-58
2023/07/02 02:33:28;;;;;;;7.80;4.10;;;19.20;78.20;;;21.86;51.34;100332.38;4935773;29;20508;-60
2023/07/02 02:35:56;;;;;;;5.93;4.17;;;19.20;78.40;;;21.84;51.58;100322.97;4935840;29;20297;-58
2023/07/02 02:38:23;;;;;;;6.97;4.37;;;19.10;78.40;;;21.85;51.52;100335.31;4935722;29;20333;-55
2023/07/02 02:40:50;;;;;;;6.23;3.90;;;19.10;78.50;;;21.86;51.63;100342.31;4935369;29;20304;-61
2023/07/02 02:43:17;;;;;;;6.10;4.40;;;19.10;78.60;;;21.88;51.42;100332.13;4935905;29;20261;-59
2023/07/02 02:45:44;;;;;;;5.33;4.23;;;19.10;78.70;;;21.88;51.46;100324.09;4935932;29;20325;-60
2023/07/02 02:48:12;;;;;;;8.10;4.53;;;19.10;78.70;;;21.87;51.48;100319.81;4935698;29;20280;-56
2023/07/02 02:50:42;;;;;;;9.43;5.03;;;19.10;78.80;;;21.85;51.66;100313.88;4934910;29;20300;-58
2023/07/02 02:53:10;;;;;;;6.00;4.33;;;19.10;78.50;;;21.82;51.34;100301.75;4971719;28;20240;-59
2023/07/02 02:55:37;;;;;;;5.27;3.83;;;19.10;78.50;;;21.83;51.99;100302.56;4976339;28;20220;-59
2023/07/02 02:58:04;;;;;;;10.17;4.53;;;19.10;78.60;;;21.86;51.58;100310.13;4976234;28;20196;-59
2023/07/02 03:00:31;;;;;;;8.93;4.60;;;19.10;78.50;;;21.87;51.43;100314.44;4975968;28;20287;-60
2023/07/02 03:02:59;;;;;;;8.13;4.30;;;19.10;78.50;;;21.87;51.40;100319.81;4976074;28;20295;-61
2023/07/02 03:05:27;;;;;;;6.40;4.20;;;19.10;78.40;;;21.84;51.54;100331.00;4975189;28;20218;-57
2023/07/02 03:07:54;;;;;;;8.90;4.97;;;19.10;78.30;;;21.83;51.57;100326.69;4976041;28;20271;-61
2023/07/02 03:10:21;;;;;;;7.67;5.23;;;19.10;78.50;;;21.80;51.79;100322.66;4975982;28;20231;-60
2023/07/02 03:12:48;;;;;;;7.03;4.40;;;19.00;78.50;;;21.80;51.46;100324.56;4976241;28;20284;-59
2023/07/02 03:15:17;;;;;;;6.33;4.30;;;19.00;78.60;;;21.81;51.22;100320.78;4976028;28;20189;-58
2023/07/02 03:17:44;;;;;;;9.83;5.23;;;19.00;78.90;;;21.79;51.72;100322.94;4975732;28;20235;-61
2023/07/02 03:20:11;;;;;;;6.83;4.70;;;19.00;78.80;;;21.76;51.95;100332.28;4975510;28;20558;-61
2023/07/02 03:22:40;;;;;;;8.43;5.40;;;19.00;78.80;;;21.72;51.75;100335.75;4975389;28;20189;-61
2023/07/02 03:25:08;;;;;;;13.13;5.07;;;19.00;78.80;;;21.68;51.82;100334.66;4975692;28;20209;-58
2023/07/02 03:27:35;;;;;;;11.87;5.13;;;19.00;78.90;;;21.62;51.99;100333.78;4975611;28;20269;-59
2023/07/02 03:30:04;;;;;;;6.70;5.10;;;18.90;78.90;;;21.61;51.80;100337.53;4974973;28;20286;-58
2023/07/02 03:32:32;;;;;;;9.67;5.37;;;18.90;79.00;;;21.56;51.95;100338.28;4975145;28;20235;-59
2023/07/02 03:34:59;;;;;;;8.53;5.10;;;18.90;79.00;;;21.55;52.27;100331.34;4975532;28;21056;-59
2023/07/02 03:37:26;;;;;;;8.67;5.43;;;18.90;78.90;;;21.54;51.94;100339.63;4975506;28;20227;-58
2023/07/02 03:39:54;;;;;;;11.47;5.33;;;18.80;78.80;;;21.52;51.96;100337.19;4975213;28;20232;-63
2023/07/02 03:42:21;;;;;;;9.43;5.73;;;18.80;78.90;;;21.50;51.95;100343.88;4975421;28;20196;-59
2023/07/02 03:44:48;;;;;;;9.13;5.40;;;18.80;79.10;;;21.41;51.79;100337.38;4974742;28;20216;-60
2023/07/02 03:47:16;;;;;;;8.27;5.10;;;18.80;78.80;;;21.41;51.97;100340.06;4974916;28;20251;-61
2023/07/02 03:49:43;;;;;;;9.83;5.87;;;18.70;78.80;;;21.40;51.98;100336.56;4974843;28;20220;-59
2023/07/02 03:52:10;;;;;;;9.03;5.03;;;18.70;79.00;;;21.36;52.07;100338.16;4974365;28;20200;-61
2023/07/02 03:54:39;;;;;;;8.07;5.00;;;18.70;79.00;;;21.36;52.19;100338.16;4975014;28;20595;-61
2023/07/02 03:57:08;;;;;;;8.23;5.10;;;18.70;79.10;;;21.36;51.83;100343.50;4974967;28;20288;-59
2023/07/02 03:59:35;;;;;;;11.53;5.73;;;18.60;79.10;;;21.36;52.12;100337.34;4974706;28;20222;-59
2023/07/02 04:02:02;;;;;;;9.77;5.10;;;18.60;79.10;;;21.36;52.31;100343.50;4975089;28;20545;-59
2023/07/02 04:04:29;;;;;;;10.03;5.33;;;18.60;79.10;;;21.35;51.81;100349.91;4975027;28;20275;-59
2023/07/02 04:06:56;;;;;;;7.50;5.20;;;18.60;78.90;;;21.32;52.22;100339.69;4975044;28;20193;-61
2023/07/02 04:09:23;;;;;;;9.20;5.30;;;18.60;78.80;;;21.30;52.15;100349.84;4974593;28;20292;-60
2023/07/02 04:11:50;;;;;;;12.83;6.20;;;18.60;78.90;;;21.30;52.28;100354.44;4975085;28;20272;-60
2023/07/02 04:14:18;;;;;;;12.83;6.03;;;18.60;78.90;;;21.31;52.30;100356.03;4975036;28;20228;-60
2023/07/02 04:16:45;;;;;;;12.77;5.63;;;18.60;79.00;;;21.29;51.79;100353.63;4974817;28;20216;-58
2023/07/02 04:19:12;;;;;;;14.17;5.67;;;18.60;78.90;;;21.31;51.65;100353.34;4974453;28;20307;-58
2023/07/02 04:21:40;;;;;;;10.73;5.57;;;18.60;79.00;;;21.31;51.67;100359.53;4974921;28;20206;-60
2023/07/02 04:24:07;;;;;;;10.97;5.67;;;18.60;79.00;;;21.33;52.17;100360.06;4974612;28;20271;-60
2023/07/02 04:26:36;;;;;;;10.97;5.80;;;18.60;79.10;;;21.33;51.73;100353.91;4975180;28;20212;-58
2023/07/02 04:29:24;;;;;;;8.53;5.97;;;18.60;79.10;;;21.32;52.27;100358.44;4974642;28;20215;-57
2023/07/02 04:31:51;;;;;;;13.13;6.43;;;18.60;79.00;;;21.32;52.11;100363.00;4974864;28;20196;-61
2023/07/02 04:34:21;;;;;;;14.73;6.57;;;18.60;78.90;;;21.30;51.47;100362.47;4974566;28;20196;-60
2023/07/02 04:36:48;;;;;;;13.53;5.60;;;18.60;78.80;;;21.29;51.78;100364.34;4974649;28;20201;-58
2023/07/02 04:39:19;;;;;;;10.83;5.33;;;18.60;78.90;;;21.29;52.13;100358.97;4974195;28;20287;-59
2023/07/02 04:41:46;;;;;;;11.77;6.20;;;18.60;79.00;;;21.29;51.77;100358.97;4974647;28;20177;-60
2023/07/02 04:44:13;;;;;;;9.87;6.27;;;18.60;78.90;;;21.27;52.19;100361.09;4974404;28;20588;-60
2023/07/02 04:46:42;;;;;;;10.80;6.03;;;18.60;78.90;;;21.29;51.69;100361.66;4974449;28;20221;-57
2023/07/02 04:49:08;;;;;;;12.53;6.33;;;18.60;78.90;;;21.27;52.12;100360.28;4974252;28;20251;-59
2023/07/02 04:51:35;;;;;;;11.60;6.73;;;18.60;78.70;;;21.27;52.07;100363.78;4970996;28;20225;-58
2023/07/02 04:54:02;;;;;;;15.77;6.93;;;18.60;78.70;;;21.28;51.58;100364.56;4955082;28;20681;-60
2023/07/02 04:56:29;;;;;;;10.23;6.13;;;18.60;78.50;;;21.27;51.69;100366.47;4955292;29;20288;-58
2023/07/02 04:58:56;;;;;;;15.57;6.73;;;18.50;78.30;;;21.25;51.88;100357.84;4954509;28;20295;-57
2023/07/02 05:01:23;;;;;;;12.70;6.60;;;18.50;78.30;;;21.28;51.47;100365.38;4955121;28;20201;-57
2023/07/02 05:03:52;;;;;;;12.07;7.23;;;18.60;78.40;;;21.32;51.62;100368.38;4954679;28;20198;-59
2023/07/02 05:06:19;;;;;;;19.63;8.23;;;18.60;78.30;;;21.33;51.28;100369.97;4955175;28;20221;-60
2023/07/02 05:08:46;;;;;;;15.77;7.03;;;18.60;78.00;;;21.34;51.25;100368.91;4954587;28;20776;-59
2023/07/02 05:11:13;;;;;;;12.90;7.00;;;18.60;78.00;;;21.36;51.19;100367.59;4955181;29;20189;-59
2023/07/02 05:13:40;;;;;;;13.73;7.43;;;18.60;77.90;;;21.38;51.10;100378.88;4955034;28;20328;-58
2023/07/02 05:16:07;;;;;;;15.77;7.47;;;18.70;77.90;;;21.43;50.64;100373.56;4955033;28;20189;-60
2023/07/02 05:18:34;;;;;;;14.77;6.87;;;18.70;77.60;;;21.48;50.92;100381.66;4955079;28;20207;-59
2023/07/02 05:21:03;;;;;;;14.90;6.80;;;18.70;77.50;;;21.47;50.94;100382.69;4955050;29;20248;-60
2023/07/02 05:23:30;;;;;;;14.23;7.23;;;18.70;77.10;;;21.45;50.65;100379.47;4955375;28;20225;-59
2023/07/02 05:25:56;;;;;;;18.57;7.67;;;18.70;76.70;;;21.46;50.84;100383.78;4954847;28;20299;-59
2023/07/02 05:28:24;;;;;;;17.30;8.10;;;18.80;76.80;;;21.49;50.77;100395.81;4956883;28;20260;-59
2023/07/02 05:30:51;;;;;;;14.13;6.97;;;18.80;76.60;;;21.49;50.39;100388.59;4959010;28;20554;-59
2023/07/02 05:33:21;;;;;;;16.13;7.57;;;18.80;76.50;;;21.52;50.43;100396.13;4958714;28;20209;-60
2023/07/02 05:35:48;;;;;;;20.03;7.83;;;18.80;76.50;;;21.57;50.16;100388.16;4958512;28;20225;-60
2023/07/02 05:38:18;;;;;;;14.37;7.47;;;18.80;76.60;;;21.62;50.11;100386.56;4958860;28;20197;-57
2023/07/02 05:40:45;;;;;;;18.50;7.67;;;18.80;76.50;;;21.66;50.34;100390.34;4957589;28;20646;-59
2023/07/02 05:43:13;;;;;;;14.57;7.47;;;18.80;76.10;;;21.68;49.59;100388.25;4961842;28;20197;-61
2023/07/02 05:45:40;;;;;;;13.97;7.27;;;18.80;75.90;;;21.68;49.80;100388.25;4977264;28;20264;-59
2023/07/02 05:48:07;;;;;;;15.53;7.50;;;18.90;75.80;;;21.71;49.45;100390.38;4977253;28;20280;-59
2023/07/02 05:50:34;;;;;;;14.83;8.13;;;18.90;75.80;;;21.73;49.51;100402.47;4976466;28;20244;-58
2023/07/02 05:53:01;;;;;;;13.63;7.20;;;18.90;76.00;;;21.75;49.45;100384.25;4963063;28;20288;-59
2023/07/02 05:55:30;;;;;;;14.87;7.60;;;18.90;75.70;;;21.83;49.72;100391.00;4957950;28;20602;-58
2023/07/02 05:58:01;;;;;;;13.47;7.33;;;19.00;75.80;;;21.87;49.46;100397.53;4958180;29;20284;-58
2023/07/02 06:00:28;;;;;;;19.80;8.53;;;19.00;75.70;;;21.89;48.94;100395.41;4957454;28;20315;-62
2023/07/02 06:02:55;;;;;;;14.07;8.40;;;19.00;74.80;;;21.89;48.93;100408.78;4957421;28;20622;-64
2023/07/02 06:05:22;;;;;;;16.40;8.30;;;19.00;74.60;;;21.89;48.80;100398.06;4957473;29;20260;-57
2023/07/02 06:07:49;;;;;;;17.27;8.57;;;19.10;74.70;;;21.91;48.85;100395.94;4957714;28;20197;-59
2023/07/02 06:10:16;;;;;;;19.07;8.33;;;19.10;74.60;;;21.95;48.68;100400.53;4957581;28;20263;-63
2023/07/02 06:12:45;;;;;;;20.40;8.40;;;19.10;74.20;;;21.97;48.27;100392.22;4957940;28;20201;-59
2023/07/02 06:15:12;;;;;;;17.27;8.13;;;19.10;73.80;;;21.99;48.16;100398.13;4957642;28;20199;-60
2023/07/02 06:17:39;;;;;;;18.90;8.33;;;19.20;73.90;;;22.01;48.13;100406.75;4958064;28;20199;-60
2023/07/02 06:20:08;;;;;;;21.70;9.17;;;19.20;73.90;;;22.05;48.16;100389.88;4957445;28;20753;-57
2023/07/02 06:22:34;;;;;;;12.67;7.60;;;19.20;73.50;;;22.11;48.07;100404.09;4957649;29;20228;-60
2023/07/02 06:25:02;;;;;;;14.20;8.07;;;19.20;73.50;;;22.18;47.96;100405.50;4957584;28;20228;-64
2023/07/02 06:27:32;;;;;;;15.37;8.23;;;19.30;73.50;;;22.24;47.29;100403.66;4957532;28;20189;-59
2023/07/02 06:30:00;;;;;;;18.20;7.90;;;19.30;72.10;;;22.30;47.01;100410.66;4956898;28;20260;-59
2023/07/02 06:32:27;;;;;;;15.23;8.07;;;19.30;72.10;;;22.33;46.80;100401.28;4957217;28;20193;-57
2023/07/02 06:34:54;;;;;;;15.23;8.30;;;19.40;71.50;;;22.37;46.19;100410.47;4957359;28;20245;-60
2023/07/02 06:37:21;;;;;;;17.83;7.90;;;19.50;71.10;;;22.42;46.12;100422.00;4957255;28;20190;-60
2023/07/02 06:39:48;;;;;;;18.07;7.53;;;19.60;70.70;;;22.51;46.22;100423.13;4963450;28;20228;-57
2023/07/02 06:42:15;;;;;;;14.03;7.83;;;19.60;71.60;;;22.59;45.80;100422.63;4976347;28;20220;-60
2023/07/02 06:44:42;;;;;;;17.03;8.50;;;19.60;70.30;;;22.65;45.48;100427.00;4976135;28;20271;-60
2023/07/02 06:47:10;;;;;;;18.30;8.67;;;19.70;70.10;;;22.76;45.50;100433.22;4976260;28;20287;-57
2023/07/02 06:49:37;;;;;;;18.13;8.13;;;19.80;69.50;;;22.87;44.80;100438.34;4976252;28;20263;-62
2023/07/02 06:52:05;;;;;;;19.00;8.17;;;19.80;68.80;;;22.85;44.39;100443.19;4975903;28;20240;-58
2023/07/02 06:54:32;;;;;;;23.27;8.60;;;19.90;68.50;;;22.83;44.65;100437.28;4976234;28;20205;-56
2023/07/02 06:56:59;;;;;;;16.03;7.93;;;19.90;68.30;;;22.81;44.43;100439.41;4976465;28;20844;-59
2023/07/02 06:59:26;;;;;;;15.83;9.13;;;19.90;68.00;;;22.82;44.39;100449.06;4975962;28;20303;-59
2023/07/02 07:01:53;;;;;;;19.73;8.83;;;19.90;67.70;;;22.82;44.43;100438.34;4976040;28;20189;-59
2023/07/02 07:04:22;;;;;;;15.07;7.87;;;20.00;68.00;;;22.92;44.58;100447.53;4975949;28;20196;-60
2023/07/02 07:06:49;;;;;;;19.30;9.53;;;20.00;68.50;;;23.07;44.27;100447.56;4975697;28;20223;-59
2023/07/02 07:09:17;;;;;;;17.90;8.47;;;20.10;68.20;;;23.11;43.76;100448.63;4975802;28;20204;-58
2023/07/02 07:11:44;;;;;;;19.93;8.37;;;20.10;67.10;;;23.05;43.75;100455.06;4976151;28;20205;-59
2023/07/02 07:14:11;;;;;;;17.80;7.83;;;20.20;67.10;;;23.10;43.80;100449.72;4975962;28;20196;-60
2023/07/02 07:16:38;;;;;;;14.23;8.53;;;20.30;66.70;;;23.15;43.70;100464.00;4976004;28;20189;-60
2023/07/02 07:19:07;;;;;;;18.20;8.43;;;20.30;66.70;;;23.20;42.82;100460.50;4975564;28;20213;-60
2023/07/02 07:21:35;;;;;;;12.77;7.20;;;20.30;65.20;;;23.20;42.72;100468.56;4975849;28;20193;-59
2023/07/02 07:24:02;;;;;;;15.57;7.60;;;20.30;64.70;;;23.26;41.95;100462.13;4975661;28;20193;-60
2023/07/02 07:26:29;;;;;;;12.20;7.57;;;20.30;63.70;;;23.28;41.28;100462.66;4975429;28;20745;-58
2023/07/02 07:28:57;;;;;;;15.77;8.23;;;20.30;62.90;;;23.31;41.18;100468.31;4975243;28;20708;-60
2023/07/02 07:31:24;;;;;;;13.83;6.70;;;20.30;62.50;;;23.35;41.40;100469.44;4975520;28;20197;-59
2023/07/02 07:33:51;;;;;;;13.30;6.83;;;20.40;63.00;;;23.37;40.76;100474.53;4974858;28;20224;-59
2023/07/02 07:36:19;;;;;;;15.03;7.37;;;20.40;61.60;;;23.36;40.49;100470.25;4975459;28;20658;-57
2023/07/02 07:38:47;;;;;;;13.73;6.70;;;20.40;61.10;;;23.37;40.04;100478.03;4975118;28;20640;-61
2023/07/02 07:41:14;;;;;;;12.77;7.60;;;20.40;60.20;;;23.41;39.98;100478.31;4975499;28;20623;-60
2023/07/02 07:43:41;;;;;;;13.77;6.73;;;20.50;60.20;;;23.43;40.02;100476.16;4975020;28;20266;-59
2023/07/02 07:46:08;;;;;;;12.17;7.10;;;20.60;60.40;;;23.55;39.77;100476.75;4975291;28;20238;-59
2023/07/02 07:48:36;;;;;;;14.53;7.80;;;20.60;60.20;;;23.64;39.74;100477.81;4974723;28;20648;-60
2023/07/02 07:51:03;;;;;;;12.07;7.07;;;20.70;59.80;;;23.70;39.69;100487.50;4974667;28;20509;-57
2023/07/02 07:53:30;;;;;;;13.23;6.77;;;20.70;59.90;;;23.70;39.17;100482.13;4975066;28;20287;-61
2023/07/02 07:55:59;;;;;;;10.57;6.77;;;20.70;59.30;;;23.76;39.00;100482.94;4975292;28;20243;-60
2023/07/02 07:58:26;;;;;;;13.27;6.80;;;20.70;59.50;;;23.82;39.04;100495.34;4974981;28;20662;-62
2023/07/02 08:00:53;;;;;;;12.33;6.10;;;20.80;59.50;;;23.85;38.65;100492.91;4974867;28;20195;-59
2023/07/02 08:03:20;;;;;;;10.90;5.70;;;20.80;58.40;;;23.88;38.57;100495.06;4975056;28;20613;-60
2023/07/02 08:05:47;;;;;;;12.47;6.30;;;20.80;58.10;;;23.96;38.62;100496.41;4975141;28;20589;-59
2023/07/02 08:08:14;;;;;;;11.30;6.23;;;20.80;58.60;;;24.04;39.05;100496.66;4975054;28;20673;-58
2023/07/02 08:10:40;;;;;;;8.80;5.23;;;21.00;59.10;;;24.00;37.19;100497.47;4974700;28;20307;-59
2023/07/02 08:13:09;;;;;;;12.00;5.97;;;20.90;56.70;;;23.97;37.21;100496.13;4974671;28;20284;-61
2023/07/02 08:15:37;;;;;;;11.40;5.77;;;21.00;56.30;;;23.92;37.18;100512.25;4974887;28;20279;-58
2023/07/02 08:18:07;;;;;;;13.37;5.90;;;21.00;56.50;;;23.94;37.59;100512.81;4988985;28;20263;-60
2023/07/02 08:20:34;;;;;;;9.33;5.80;;;21.00;56.50;;;24.28;36.91;100509.59;4974288;28;20212;-66
2023/07/02 08:23:01;;;;;;;15.13;6.80;;;21.00;56.10;;;24.74;35.71;100492.31;4974531;28;20231;-60
2023/07/02 08:25:28;;;;;;;10.97;5.60;;;21.20;56.00;;;25.44;34.84;100504.72;4974438;28;20263;-60
2023/07/02 08:27:55;;;;;;;9.37;5.33;;;21.50;55.50;;;26.24;34.09;100500.69;4974416;28;20711;-58
2023/07/02 08:30:23;;;;;;;14.27;6.03;;;21.80;55.00;;;26.82;32.69;100502.25;4974174;28;20307;-59
2023/07/02 08:32:54;;;;;;;9.63;6.43;;;22.20;53.70;;;27.01;32.33;100496.09;4974307;28;20207;-59
2023/07/02 08:35:22;;;;;;;10.17;5.47;;;22.60;53.30;;;27.35;31.33;100505.66;4974751;28;20200;-61
2023/07/02 08:37:49;;;;;;;7.60;5.37;;;22.80;51.20;;;27.60;30.44;100517.25;4973983;28;20188;-59
2023/07/02 08:40:17;;;;;;;8.77;5.80;;;23.00;48.30;;;28.24;28.43;100511.13;4973994;28;20523;-61
2023/07/02 08:42:48;;;;;;;9.70;5.83;;;23.30;47.00;;;29.13;27.75;100512.44;4972928;28;20669;-60
2023/07/02 08:45:17;;;;;;;10.97;5.60;;;23.70;47.20;;;30.09;27.12;100511.09;4974131;28;20256;-63
2023/07/02 08:47:45;;;;;;;9.27;4.93;;;24.30;46.00;;;30.41;25.69;100496.44;4974027;28;20212;-62
2023/07/02 08:50:13;;;;;;;8.40;5.73;;;24.70;44.10;;;31.01;26.01;100504.88;4973658;28;20584;-60
2023/07/02 08:52:42;;;;;;;8.77;5.43;;;25.20;43.90;;;31.77;25.59;100498.75;4955474;28;20201;-60
2023/07/02 08:55:09;;;;;;;8.00;4.97;;;25.70;43.30;;;32.56;24.40;100498.31;4955370;28;20211;-62
2023/07/02 08:57:36;;;;;;;10.07;6.07;;;26.30;42.50;;;33.01;23.23;100502.09;4955048;28;20190;-60
2023/07/02 09:00:10;;;;;;;13.70;6.77;;;26.80;40.40;;;32.83;22.87;100503.31;4953792;29;20261;-60
2023/07/02 09:02:37;;;;;;;9.37;5.83;;;27.00;39.20;;;32.53;24.35;100509.88;4956148;28;20178;-61
2023/07/02 09:05:07;;;;;;;11.23;5.70;;;27.20;40.00;;;31.71;24.71;100526.47;4958974;28;20244;-61
2023/07/02 09:07:45;;;;;;;9.83;6.23;;;27.20;38.60;;;30.48;25.47;100532.94;4958346;28;20589;-62
2023/07/02 09:10:26;;;;;;;12.00;6.00;;;26.80;39.10;;;29.37;27.17;100534.72;4958540;28;20581;-60
2023/07/02 09:13:04;;;;;;;9.70;6.13;;;26.30;40.20;;;28.41;29.03;100560.91;4958851;28;20271;-61
2023/07/02 09:15:37;;;;;;;9.13;6.40;;;25.60;42.00;;;27.66;30.00;100554.75;4958708;28;20189;-61
2023/07/02 09:18:16;;;;;;;9.57;6.20;;;25.00;43.50;;;27.34;31.43;100546.50;4958976;28;20682;-60
2023/07/02 09:20:45;;;;;;;9.73;6.40;;;24.50;45.30;;;27.31;31.50;100541.69;4958265;28;20220;-60
2023/07/02 09:23:13;;;;;;;10.53;5.97;;;24.10;46.40;;;27.20;31.52;100551.00;4958311;28;20225;-61
2023/07/02 09:25:41;;;;;;;12.17;6.73;;;23.90;47.10;;;27.74;31.29;100548.69;4959253;28;20197;-58
2023/07/02 09:28:17;;;;;;;11.77;6.17;;;23.90;47.60;;;28.73;29.97;100552.00;4961448;28;20224;-62
2023/07/02 09:30:53;;;;;;;12.60;6.97;;;24.10;47.40;;;29.94;28.32;100549.50;4977683;28;20264;-61
2023/07/02 09:33:20;;;;;;;9.40;5.93;;;24.50;46.40;;;30.94;27.60;100539.88;4978208;28;20188;-59
2023/07/02 09:35:51;;;;;;;9.67;6.20;;;25.10;46.40;;;32.12;25.78;100553.25;4977908;28;20216;-61
2023/07/02 09:38:19;;;;;;;9.70;5.90;;;25.70;45.90;;;32.96;24.36;100570.50;4977620;28;20193;-60
2023/07/02 09:40:48;;;;;;;8.97;5.93;;;26.30;43.00;;;32.80;23.92;100547.63;4977242;28;20222;-60
2023/07/02 09:43:18;;;;;;;12.73;6.03;;;26.60;41.40;;;32.20;25.11;100555.13;4977079;28;20180;-60
2023/07/02 09:45:47;;;;;;;10.73;6.37;;;26.90;40.50;;;31.78;25.20;100552.09;4977500;28;20203;-60
2023/07/02 09:48:16;;;;;;;9.30;5.83;;;27.00;40.90;;;31.81;25.39;100548.72;4977560;28;20209;-62
2023/07/02 09:50:46;;;;;;;10.00;6.60;;;27.00;40.80;;;32.35;24.46;100549.19;4973504;28;20300;-62
2023/07/02 09:53:15;;;;;;;9.77;5.93;;;27.00;39.10;;;33.11;23.13;100564.53;4957963;28;20182;-59
2023/07/02 09:55:44;;;;;;;9.43;6.00;;;27.20;38.30;;;33.78;22.27;100544.53;4958008;28;20201;-59
2023/07/02 09:58:14;;;;;;;9.77;6.33;;;27.40;37.90;;;34.41;22.04;100541.34;4957733;28;20189;-61
2023/07/02 10:00:41;;;;;;;10.47;5.90;;;27.70;37.90;;;35.00;21.27;100547.25;4971901;28;20747;-62
2023/07/02 10:03:09;;;;;;;7.60;5.57;;;28.10;36.90;;;35.04;21.07;100542.72;4977417;28;20194;-59
2023/07/02 10:05:36;;;;;;;9.20;5.40;;;28.40;35.80;;;35.52;20.51;100552.84;4977473;28;20244;-59
2023/07/02 10:08:16;;;;;;;14.33;6.20;;;28.70;34.80;;;35.83;19.73;100544.75;4977590;28;20221;-62
2023/07/02 10:10:44;;;;;;;8.30;5.73;;;29.00;33.70;;;36.02;19.96;100546.09;4977088;28;20291;-60
2023/07/02 10:13:11;;;;;;;7.73;5.20;;;29.20;33.90;;;36.03;19.97;100551.22;4976829;28;20224;-63